Time;durP1;ratioP1;P1;durP2;ratioP2;P2;SDS_P1;SDS_P2;PMS_P1;PMS_P2;Temp;Humidity;BMP_temperature;BMP_pressure;BME280_temperature;BME280_humidity;BME280_pressure;Samples;Min_cycle;Max_cycle;Signal;HPM_P1;HPM_P2
2023/01/20 00:01:42;;;;;;;;;;;;;;;-2.82;100.00;99547.97;5049781;28;19920;-60
2023/01/20 00:04:08;;;;;;;;;;;;;;;-2.85;100.00;99558.88;5077978;28;19923;-60
2023/01/20 00:06:33;;;;;;;;;;;;;;;-2.92;100.00;99560.59;5102370;28;20513;-61
2023/01/20 00:08:59;;;;;;;;;;;;;;;-2.95;100.00;99559.81;5095969;28;19916;-62
2023/01/20 00:11:25;;;;;;;;;;;;;;;-2.89;100.00;99554.75;5101059;28;19920;-61
2023/01/20 00:13:54;;;;;;;;;;;;;;;-2.95;100.00;99558.13;5097613;28;19969;-65
2023/01/20 00:16:19;;;;;;;;;;;;;;;-3.01;100.00;99565.72;5100733;28;19926;-60
2023/01/20 00:18:45;;;;;;;;;;;;;;;-3.02;100.00;99568.25;5097588;28;19916;-61
2023/01/20 00:21:11;;;;;;;;;;;;;;;-3.08;100.00;99567.47;5091276;28;19923;-60
2023/01/20 00:23:36;;;;;;;;;;;;;;;-3.10;100.00;99570.81;5099078;28;20007;-61
2023/01/20 00:26:03;;;;;;;;;;;;;;;-3.01;100.00;99568.25;5092316;28;20040;-61
2023/01/20 00:28:28;;;;;;;;;;;;;;;-3.08;100.00;99571.63;5091270;28;20014;-61
2023/01/20 00:30:53;;;;;;;;;;;;;;;-3.13;100.00;99574.19;5088988;28;20019;-60
2023/01/20 00:33:18;;;;;;;;;;;;;;;-3.17;100.00;99576.75;5101539;28;20363;-61
2023/01/20 00:35:43;;;;;;;;;;;;;;;-3.16;100.00;99573.38;5092614;28;19968;-64
2023/01/20 00:38:09;;;;;;;;;;;;;;;-3.19;100.00;99569.19;5090124;28;19916;-61
2023/01/20 00:40:34;;;;;;;;;;;;;;;-3.17;100.00;99574.25;5086535;28;19920;-61
2023/01/20 00:42:59;;;;;;;;;;;;;;;-3.18;100.00;99575.91;5091325;28;20391;-60
2023/01/20 00:45:24;;;;;;;;;;;;;;;-3.21;100.00;99583.47;5092522;28;19916;-61
2023/01/20 00:47:49;;;;;;;;;;;;;;;-3.14;100.00;99582.59;5091830;28;19916;-60
2023/01/20 00:50:15;;;;;;;;;;;;;;;-3.07;100.00;99583.38;5083842;28;19916;-61
2023/01/20 00:52:40;;;;;;;;;;;;;;;-3.09;100.00;99585.06;5090720;28;19916;-60
2023/01/20 00:55:05;;;;;;;;;;;;;;;-3.19;100.00;99585.97;5092434;28;19916;-60
2023/01/20 00:57:30;;;;;;;;;;;;;;;-3.19;100.00;99584.28;5089059;28;20334;-63
2023/01/20 00:59:56;;;;;;;;;;;;;;;-3.24;100.00;99583.50;5089290;28;19916;-60
2023/01/20 01:02:21;;;;;;;;;;;;;;;-3.26;100.00;99581.00;5075406;28;19920;-60
2023/01/20 01:04:49;;;;;;;;;;;;;;;-3.22;100.00;99586.00;5092277;28;19962;-60
2023/01/20 01:07:14;;;;;;;;;;;;;;;-3.21;100.00;99586.00;5095059;28;20314;-60
2023/01/20 01:09:40;;;;;;;;;;;;;;;-3.12;100.00;99590.97;5092187;28;19927;-60
2023/01/20 01:12:05;;;;;;;;;;;;;;;-3.16;100.00;99589.31;5097516;28;20375;-60
2023/01/20 01:14:31;;;;;;;;;;;;;;;-3.19;100.00;99596.88;5092322;28;19916;-61
2023/01/20 01:16:56;;;;;;;;;;;;;;;-3.27;100.00;99598.63;5107048;28;20391;-61
2023/01/20 01:19:21;;;;;;;;;;;;;;;-3.30;100.00;99599.47;5092099;28;20310;-60
2023/01/20 01:21:46;;;;;;;;;;;;;;;-3.40;100.00;99597.84;5095074;28;20018;-61
2023/01/20 01:24:11;;;;;;;;;;;;;;;-3.46;100.00;99596.19;5093841;28;19920;-60
2023/01/20 01:26:37;;;;;;;;;;;;;;;-3.45;100.00;99609.59;5091554;28;19967;-60
2023/01/20 01:29:02;;;;;;;;;;;;;;;-3.48;100.00;99622.22;5093064;28;20001;-60
2023/01/20 01:31:27;;;;;;;;;;;;;;;-3.50;100.00;99616.34;5096571;28;20287;-60
2023/01/20 01:33:52;;;;;;;;;;;;;;;-3.50;100.00;99619.69;5100477;28;19916;-60
2023/01/20 01:36:17;;;;;;;;;;;;;;;-3.54;100.00;99633.13;5095316;28;19947;-60
2023/01/20 01:38:43;;;;;;;;;;;;;;;-3.54;100.00;99632.28;5095621;28;19982;-60
2023/01/20 01:41:09;;;;;;;;;;;;;;;-3.59;100.00;99630.63;5093842;28;19930;-60
2023/01/20 01:43:36;;;;;;;;;;;;;;;-3.63;100.00;99634.00;5094645;28;19916;-61
2023/01/20 01:46:01;;;;;;;;;;;;;;;-3.59;100.00;99634.81;5095133;28;19938;-60
2023/01/20 01:48:26;;;;;;;;;;;;;;;-3.63;100.00;99641.53;5095938;28;19916;-60
2023/01/20 01:51:03;;;;;;;;;;;;;;;-3.66;100.00;99641.56;5104090;28;19927;-60
2023/01/20 01:53:31;;;;;;;;;;;;;;;-3.73;100.00;99652.47;5094430;28;19927;-61
2023/01/20 01:55:58;;;;;;;;;;;;;;;-3.69;100.00;99640.72;5094802;28;19960;-60
2023/01/20 01:58:26;;;;;;;;;;;;;;;-3.69;100.00;99639.03;5085506;28;20347;-60
2023/01/20 02:00:51;;;;;;;;;;;;;;;-3.67;100.00;99656.63;5088366;28;20019;-60
2023/01/20 02:03:17;;;;;;;;;;;;;;;-3.66;100.00;99653.28;5104666;28;20006;-60
2023/01/20 02:05:42;;;;;;;;;;;;;;;-3.72;100.00;99661.69;5095174;28;19938;-60
2023/01/20 02:08:08;;;;;;;;;;;;;;;-3.78;100.00;99662.53;5115205;27;19916;-60
2023/01/20 02:10:33;;;;;;;;;;;;;;;-3.81;100.00;99664.22;5088532;28;20367;-60
2023/01/20 02:12:59;;;;;;;;;;;;;;;-3.84;100.00;99671.78;5105843;28;19926;-60
2023/01/20 02:15:31;;;;;;;;;;;;;;;-3.86;100.00;99668.44;5095101;28;19924;-62
2023/01/20 02:17:56;;;;;;;;;;;;;;;-3.89;100.00;99665.06;5093400;28;19982;-60
2023/01/20 02:20:30;;;;;;;;;;;;;;;-3.84;100.00;99671.78;5087320;28;19929;-60
2023/01/20 02:23:14;;;;;;;;;;;;;;;-3.89;100.00;99669.28;5093776;28;19916;-60
2023/01/20 02:26:14;;;;;;;;;;;;;;;-3.83;100.00;99673.44;5082976;28;19959;-61
2023/01/20 02:28:42;;;;;;;;;;;;;;;-3.90;100.00;99673.44;5052195;28;19948;-60
2023/01/20 02:31:16;;;;;;;;;;;;;;;-3.84;100.00;99675.13;5041746;28;19921;-61
2023/01/20 02:33:45;;;;;;;;;;;;;;;-3.90;100.00;99682.66;5033810;28;20045;-60
2023/01/20 02:36:14;;;;;;;;;;;;;;;-3.93;100.00;99683.50;5051281;28;19946;-60
2023/01/20 02:38:43;;;;;;;;;;;;;;;-3.91;100.00;99688.53;5052078;28;19991;-62
2023/01/20 02:41:08;;;;;;;;;;;;;;;-3.89;100.00;99685.16;5023946;28;19960;-60
2023/01/20 02:43:46;;;;;;;;;;;;;;;-3.94;100.00;99691.06;5052106;28;19979;-60
2023/01/20 02:46:22;;;;;;;;;;;;;;;-3.94;100.00;99689.38;5034544;28;20020;-61
2023/01/20 02:48:53;;;;;;;;;;;;;;;-3.85;100.00;99700.25;5035364;28;19920;-60
2023/01/20 02:51:28;;;;;;;;;;;;;;;-3.86;100.00;99696.06;5025019;28;20273;-61
2023/01/20 02:53:56;;;;;;;;;;;;;;;-3.76;100.00;99697.72;5034886;28;20262;-60
2023/01/20 02:56:23;;;;;;;;;;;;;;;-3.73;100.00;99703.56;5034723;28;20011;-61
2023/01/20 02:58:49;;;;;;;;;;;;;;;-3.70;100.00;99707.75;5051820;28;19917;-64
2023/01/20 03:01:23;;;;;;;;;;;;;;;-3.63;100.00;99699.34;5041394;28;19936;-62
2023/01/20 03:03:51;;;;;;;;;;;;;;;-3.62;100.00;99712.75;5092305;28;19916;-61
2023/01/20 03:06:18;;;;;;;;;;;;;;;-3.56;100.00;99707.69;5093673;28;20395;-61
2023/01/20 03:08:45;;;;;;;;;;;;;;;-3.60;100.00;99708.56;5098714;28;20062;-60
2023/01/20 03:11:10;;;;;;;;;;;;;;;-3.58;100.00;99701.88;5092733;28;19924;-61
2023/01/20 03:13:38;;;;;;;;;;;;;;;-3.60;100.00;99719.47;5100826;28;19923;-61
2023/01/20 03:16:06;;;;;;;;;;;;;;;-3.55;100.00;99718.63;5093434;28;19998;-61
2023/01/20 03:18:32;;;;;;;;;;;;;;;-3.48;100.00;99721.09;5109329;28;19916;-61
2023/01/20 03:20:58;;;;;;;;;;;;;;;-3.49;100.00;99729.47;5090725;28;20394;-60
2023/01/20 03:23:24;;;;;;;;;;;;;;;-3.51;100.00;99732.84;5102386;28;19923;-60
2023/01/20 03:25:49;;;;;;;;;;;;;;;-3.52;100.00;99731.16;5093618;28;19916;-60
2023/01/20 03:28:14;;;;;;;;;;;;;;;-3.53;100.00;99732.84;5093472;28;20023;-60
2023/01/20 03:30:40;;;;;;;;;;;;;;;-3.54;100.00;99727.84;5088295;28;19924;-60
2023/01/20 03:33:05;;;;;;;;;;;;;;;-3.52;100.00;99737.06;5104192;28;19927;-60
2023/01/20 03:35:31;;;;;;;;;;;;;;;-3.52;100.00;99742.06;5093820;28;19923;-60
2023/01/20 03:37:56;;;;;;;;;;;;;;;-3.54;100.00;99737.91;5092845;28;19920;-60
2023/01/20 03:40:24;;;;;;;;;;;;;;;-3.48;100.00;99746.25;5085936;28;19986;-60
2023/01/20 03:42:51;;;;;;;;;;;;;;;-3.41;100.00;99749.59;5106192;28;19916;-62
2023/01/20 03:45:24;;;;;;;;;;;;;;;-3.35;100.00;99754.59;5109155;28;20358;-60
2023/01/20 03:47:56;;;;;;;;;;;;;;;-3.28;100.00;99752.91;5092679;28;19923;-61
2023/01/20 03:50:27;;;;;;;;;;;;;;;-3.28;100.00;99751.22;5085920;28;19935;-61
2023/01/20 03:52:55;;;;;;;;;;;;;;;-3.23;100.00;99762.97;5105579;28;19969;-60
2023/01/20 03:55:23;;;;;;;;;;;;;;;-3.25;100.00;99755.38;5093499;28;19923;-60
2023/01/20 03:58:02;;;;;;;;;;;;;;;-3.29;100.00;99763.78;5092584;28;19916;-60
2023/01/20 04:00:28;;;;;;;;;;;;;;;-3.27;100.00;99770.50;5087475;28;19920;-61
2023/01/20 04:02:54;;;;;;;;;;;;;;;-3.24;100.00;99767.13;5078610;28;20414;-61
2023/01/20 04:05:20;;;;;;;;;;;;;;;-3.21;100.00;99773.81;5092959;28;19955;-60
2023/01/20 04:07:45;;;;;;;;;;;;;;;-3.18;100.00;99767.09;5097369;28;19922;-60
2023/01/20 04:10:13;;;;;;;;;;;;;;;-3.19;100.00;99764.59;5083310;28;19927;-60
2023/01/20 04:12:38;;;;;;;;;;;;;;;-3.14;100.00;99772.97;5091404;28;20007;-60
2023/01/20 04:15:05;;;;;;;;;;;;;;;-3.12;100.00;99771.28;5083526;28;19995;-60
2023/01/20 04:17:30;;;;;;;;;;;;;;;-3.06;100.00;99771.28;5090900;28;19923;-60
2023/01/20 04:19:56;;;;;;;;;;;;;;;-3.01;100.00;99776.28;5107811;28;19920;-60
2023/01/20 04:22:27;;;;;;;;;;;;;;;-2.95;100.00;99777.09;5097814;28;19930;-61
2023/01/20 04:25:10;;;;;;;;;;;;;;;-2.88;100.00;99777.06;5091312;28;20003;-61
2023/01/20 04:27:35;;;;;;;;;;;;;;;-2.96;100.00;99777.94;5092212;28;20006;-60
2023/01/20 04:30:00;;;;;;;;;;;;;;;-2.93;100.00;99787.16;5092445;28;20014;-60
2023/01/20 04:32:26;;;;;;;;;;;;;;;-2.85;100.00;99784.59;5098150;28;20440;-60
2023/01/20 04:34:52;;;;;;;;;;;;;;;-2.82;100.00;99780.38;5092268;28;19920;-60
2023/01/20 04:37:17;;;;;;;;;;;;;;;-2.74;100.00;99782.03;5092088;28;19941;-60
2023/01/20 04:39:42;;;;;;;;;;;;;;;-2.75;100.00;99781.19;5092089;28;19920;-61
2023/01/20 04:42:08;;;;;;;;;;;;;;;-2.81;100.00;99786.25;5097611;28;19924;-60
2023/01/20 04:44:33;;;;;;;;;;;;;;;-2.79;100.00;99780.38;5092295;28;20006;-60
2023/01/20 04:46:59;;;;;;;;;;;;;;;-2.68;100.00;99782.84;5092061;28;19963;-59
2023/01/20 04:49:24;;;;;;;;;;;;;;;-2.62;100.00;99780.28;5108005;28;19916;-59
2023/01/20 04:51:49;;;;;;;;;;;;;;;-2.57;100.00;99789.50;5095917;28;19920;-60
2023/01/20 04:54:14;;;;;;;;;;;;;;;-2.56;100.00;99783.63;5094127;28;19960;-60
2023/01/20 04:56:39;;;;;;;;;;;;;;;-2.58;100.00;99788.63;5091789;28;19916;-60
2023/01/20 04:59:04;;;;;;;;;;;;;;;-2.70;100.00;99786.22;5091540;28;19977;-60
2023/01/20 05:01:30;;;;;;;;;;;;;;;-2.80;100.00;99788.78;5093436;28;19920;-60
2023/01/20 05:03:55;;;;;;;;;;;;;;;-2.71;100.00;99794.63;5095567;28;19916;-61
2023/01/20 05:06:20;;;;;;;;;;;;;;;-2.69;100.00;99798.78;5091964;28;19951;-61
2023/01/20 05:08:45;;;;;;;;;;;;;;;-2.66;100.00;99800.47;5096537;28;19916;-61
2023/01/20 05:11:10;;;;;;;;;;;;;;;-2.74;100.00;99805.53;5090592;28;19928;-60
2023/01/20 05:13:38;;;;;;;;;;;;;;;-2.68;100.00;99809.69;5098822;28;19951;-61
2023/01/20 05:16:04;;;;;;;;;;;;;;;-2.68;100.00;99802.13;5091693;28;19939;-61
2023/01/20 05:18:29;;;;;;;;;;;;;;;-2.75;100.00;99806.38;5091987;28;20387;-60
2023/01/20 05:20:54;;;;;;;;;;;;;;;-2.78;100.00;99804.72;5088395;28;19927;-60
2023/01/20 05:23:20;;;;;;;;;;;;;;;-2.66;100.00;99805.50;5100770;28;19916;-61
2023/01/20 05:25:51;;;;;;;;;;;;;;;-2.65;100.00;99817.25;5091954;28;19923;-61
2023/01/20 05:28:17;;;;;;;;;;;;;;;-2.57;100.00;99820.53;5090664;28;19924;-60
2023/01/20 05:30:42;;;;;;;;;;;;;;;-2.55;100.00;99825.59;5087006;28;19924;-62
2023/01/20 05:33:07;;;;;;;;;;;;;;;-2.53;100.00;99832.28;5102418;28;19931;-64
2023/01/20 05:35:32;;;;;;;;;;;;;;;-2.44;100.00;99833.91;5092344;28;19920;-61
2023/01/20 05:37:57;;;;;;;;;;;;;;;-2.45;100.00;99838.09;5091245;28;19916;-62
2023/01/20 05:40:22;;;;;;;;;;;;;;;-2.33;100.00;99841.41;5082960;28;19936;-61
2023/01/20 05:42:48;;;;;;;;;;;;;;;-2.33;100.00;99847.28;5104779;28;20018;-61
2023/01/20 05:45:13;;;;;;;;;;;;;;;-2.27;100.00;99848.91;5091736;28;19920;-61
2023/01/20 05:47:38;;;;;;;;;;;;;;;-2.31;100.00;99850.66;5091392;28;19916;-61
2023/01/20 05:50:04;;;;;;;;;;;;;;;-2.26;100.00;99850.59;5084632;28;19949;-61
2023/01/20 05:52:29;;;;;;;;;;;;;;;-2.22;100.00;99856.47;5089541;28;20333;-61
2023/01/20 05:54:54;;;;;;;;;;;;;;;-2.25;100.00;99854.81;5091214;28;19916;-61
2023/01/20 05:57:22;;;;;;;;;;;;;;;-2.40;100.00;99862.47;5086567;28;20028;-61
2023/01/20 05:59:48;;;;;;;;;;;;;;;-2.31;100.00;99868.28;5086702;28;19950;-62
2023/01/20 06:02:17;;;;;;;;;;;;;;;-2.36;100.00;99861.59;5092992;28;19928;-60
2023/01/20 06:04:42;;;;;;;;;;;;;;;-2.34;100.00;99862.44;5091750;28;19951;-63
2023/01/20 06:07:07;;;;;;;;;;;;;;;-2.30;100.00;99866.59;5095957;28;19970;-61
2023/01/20 06:09:32;;;;;;;;;;;;;;;-2.28;100.00;99869.94;5091408;28;19920;-61
2023/01/20 06:11:58;;;;;;;;;;;;;;;-2.29;100.00;99878.34;5095952;28;19919;-61
2023/01/20 06:14:23;;;;;;;;;;;;;;;-2.24;100.00;99881.69;5092201;28;20011;-61
2023/01/20 06:16:48;;;;;;;;;;;;;;;-2.16;100.00;99887.53;5093080;28;19916;-61
2023/01/20 06:19:13;;;;;;;;;;;;;;;-2.10;100.00;99891.66;5095149;28;19924;-62
2023/01/20 06:21:39;;;;;;;;;;;;;;;-2.07;100.00;99893.34;5097235;28;19927;-61
2023/01/20 06:24:04;;;;;;;;;;;;;;;-2.00;100.00;99895.81;5097732;28;19917;-61
2023/01/20 06:26:29;;;;;;;;;;;;;;;-1.99;100.00;99897.47;5094437;28;19916;-60
2023/01/20 06:28:59;;;;;;;;;;;;;;;-1.91;100.00;99904.16;5094936;28;19923;-61
2023/01/20 06:31:25;;;;;;;;;;;;;;;-2.05;100.00;99899.22;5102830;28;19924;-61
2023/01/20 06:33:50;;;;;;;;;;;;;;;-2.06;100.00;99897.53;5099503;28;19923;-64
2023/01/20 06:36:16;;;;;;;;;;;;;;;-1.90;100.00;99905.84;5092845;28;20276;-60
2023/01/20 06:38:47;;;;;;;;;;;;;;;-1.84;100.00;99914.19;5094309;28;20147;-61
2023/01/20 06:41:12;;;;;;;;;;;;;;;-1.81;100.00;99913.31;5093336;28;19927;-60
2023/01/20 06:43:40;;;;;;;;;;;;;;;-1.73;100.00;99913.28;5101679;28;20364;-62
2023/01/20 06:46:06;;;;;;;;;;;;;;;-1.69;100.00;99915.75;5093914;28;19916;-60
2023/01/20 06:48:32;;;;;;;;;;;;;;;-1.67;100.00;99915.78;5093033;28;20425;-61
2023/01/20 06:51:01;;;;;;;;;;;;;;;-1.64;100.00;99918.25;5091047;28;19924;-60
2023/01/20 06:53:26;;;;;;;;;;;;;;;-1.61;100.00;99913.22;5102631;28;19916;-61
2023/01/20 06:55:58;;;;;;;;;;;;;;;-1.85;100.00;99916.72;5093730;28;19920;-62
2023/01/20 06:58:24;;;;;;;;;;;;;;;-1.76;100.00;99913.31;5093178;28;19920;-60
2023/01/20 07:00:49;;;;;;;;;;;;;;;-1.77;100.00;99926.75;5089924;28;20019;-62
2023/01/20 07:03:14;;;;;;;;;;;;;;;-1.87;100.00;99931.00;5103673;28;19962;-62
2023/01/20 07:05:40;;;;;;;;;;;;;;;-1.96;100.00;99929.38;5094298;28;19981;-61
2023/01/20 07:08:05;;;;;;;;;;;;;;;-1.83;100.00;99927.66;5098733;28;19923;-61
2023/01/20 07:10:30;;;;;;;;;;;;;;;-1.92;100.00;99930.22;5087519;28;20418;-61
2023/01/20 07:12:55;;;;;;;;;;;;;;;-1.83;100.00;99937.72;5106223;28;19923;-61
2023/01/20 07:15:20;;;;;;;;;;;;;;;-1.73;100.00;99944.38;5093853;28;20316;-60
2023/01/20 07:17:45;;;;;;;;;;;;;;;-1.69;100.00;99943.50;5093633;28;19972;-61
2023/01/20 07:20:11;;;;;;;;;;;;;;;-1.71;100.00;99942.69;5084412;28;20367;-60
2023/01/20 07:22:36;;;;;;;;;;;;;;;-1.64;100.00;99951.91;5092604;28;20053;-60
2023/01/20 07:25:01;;;;;;;;;;;;;;;-1.60;100.00;99951.88;5093814;28;19916;-60
2023/01/20 07:27:26;;;;;;;;;;;;;;;-1.60;100.00;99954.38;5092743;28;20070;-60
2023/01/20 07:29:51;;;;;;;;;;;;;;;-1.67;100.00;99956.94;5108885;28;20371;-61
2023/01/20 07:32:17;;;;;;;;;;;;;;;-1.54;100.00;99954.34;5099500;28;19976;-60
2023/01/20 07:34:42;;;;;;;;;;;;;;;-1.49;100.00;99958.53;5093504;28;20417;-62
2023/01/20 07:37:07;;;;;;;;;;;;;;;-1.49;100.00;99968.63;5084846;28;19921;-61
2023/01/20 07:39:32;;;;;;;;;;;;;;;-1.36;100.00;99963.47;5091480;28;20068;-62
2023/01/20 07:41:57;;;;;;;;;;;;;;;-1.30;100.00;99964.25;5098200;28;19920;-62
2023/01/20 07:44:23;;;;;;;;;;;;;;;-1.48;100.00;99965.25;5093806;28;19947;-61
2023/01/20 07:46:50;;;;;;;;;;;;;;;-1.40;100.00;99969.38;5093123;28;19955;-61
2023/01/20 07:49:15;;;;;;;;;;;;;;;-1.29;100.00;99972.66;5093483;28;19916;-60
2023/01/20 07:51:42;;;;;;;;;;;;;;;-1.19;100.00;99979.31;5095734;28;19920;-60
2023/01/20 07:54:09;;;;;;;;;;;;;;;-1.20;100.00;99979.34;5095690;28;19923;-61
2023/01/20 07:56:34;;;;;;;;;;;;;;;-1.22;100.00;99986.91;5093072;28;19920;-61
2023/01/20 07:58:59;;;;;;;;;;;;;;;-1.14;100.00;99984.34;5092897;28;19916;-61
2023/01/20 08:01:26;;;;;;;;;;;;;;;-1.08;100.00;99991.00;5071431;28;20339;-61
2023/01/20 08:03:51;;;;;;;;;;;;;;;-1.20;100.00;99995.31;5092284;28;19917;-61
2023/01/20 08:06:18;;;;;;;;;;;;;;;-1.16;100.00;99991.06;5092451;28;19916;-60
2023/01/20 08:08:43;;;;;;;;;;;;;;;-1.25;100.00;99984.41;5097493;28;19943;-61
2023/01/20 08:11:10;;;;;;;;;;;;;;;-1.26;100.00;99999.59;5091396;28;20414;-61
2023/01/20 08:13:35;;;;;;;;;;;;;;;-1.26;100.00;99997.06;5099775;28;20275;-60
2023/01/20 08:16:01;;;;;;;;;;;;;;;-1.28;100.00;100003.78;5083752;28;19926;-60
2023/01/20 08:18:27;;;;;;;;;;;;;;;-1.32;100.00;100008.03;5100499;28;19916;-60
2023/01/20 08:20:52;;;;;;;;;;;;;;;-1.31;100.00;100004.66;5088486;28;19946;-60
2023/01/20 08:23:17;;;;;;;;;;;;;;;-1.37;100.00;100007.22;5098369;28;19963;-60
2023/01/20 08:25:42;;;;;;;;;;;;;;;-1.38;100.00;100008.06;5090907;28;19924;-60
2023/01/20 08:28:07;;;;;;;;;;;;;;;-1.38;100.00;100016.47;5090543;28;19924;-61
2023/01/20 08:30:33;;;;;;;;;;;;;;;-1.42;100.00;100016.50;5083002;28;20425;-62
2023/01/20 08:32:58;;;;;;;;;;;;;;;-1.29;100.00;100030.69;5098071;28;19916;-61
2023/01/20 08:35:23;;;;;;;;;;;;;;;-1.25;100.00;100036.56;5080940;28;20391;-61
2023/01/20 08:37:48;;;;;;;;;;;;;;;-1.00;100.00;100035.53;5086209;28;19912;-60
2023/01/20 08:40:14;;;;;;;;;;;;;;;-0.93;100.00;100035.50;5082108;28;19966;-60
2023/01/20 08:42:39;;;;;;;;;;;;;;;-0.76;100.00;100040.41;5077492;28;19917;-60
2023/01/20 08:45:05;;;;;;;;;;;;;;;-0.65;100.00;100036.91;5087859;28;20484;-60
2023/01/20 08:47:33;;;;;;;;;;;;;;;-0.60;100.00;100036.88;5090130;28;19941;-61
2023/01/20 08:49:58;;;;;;;;;;;;;;;-0.53;100.00;100048.59;5085722;28;20018;-61
2023/01/20 08:52:24;;;;;;;;;;;;;;;-0.42;100.00;100040.91;5085248;28;19932;-60
2023/01/20 08:54:52;;;;;;;;;;;;;;;-0.39;100.00;100043.41;5091840;28;19916;-61
2023/01/20 08:57:17;;;;;;;;;;;;;;;-0.37;100.00;100043.41;5089855;28;19966;-61
2023/01/20 08:59:43;;;;;;;;;;;;;;;-0.54;100.00;100049.44;5091581;28;20016;-62
2023/01/20 09:02:08;;;;;;;;;;;;;;;-0.50;100.00;100051.13;5091885;28;19973;-61
2023/01/20 09:04:34;;;;;;;;;;;;;;;-0.35;100.00;100045.06;5082267;28;19924;-63
2023/01/20 09:07:00;;;;;;;;;;;;;;;-0.28;100.00;100055.94;5085905;28;19920;-61
2023/01/20 09:09:25;;;;;;;;;;;;;;;0.06;100.00;100047.13;5088933;28;19916;-61
2023/01/20 09:11:50;;;;;;;;;;;;;;;0.68;100.00;100049.66;5087181;28;19926;-63
2023/01/20 09:14:16;;;;;;;;;;;;;;;0.96;100.00;100051.78;5092136;28;19923;-61
2023/01/20 09:16:41;;;;;;;;;;;;;;;1.02;100.00;100048.31;5086460;28;20027;-61
2023/01/20 09:19:07;;;;;;;;;;;;;;;0.96;100.00;100046.72;5082984;28;19935;-60
2023/01/20 09:21:32;;;;;;;;;;;;;;;1.12;100.00;100053.22;5081166;28;20395;-61
2023/01/20 09:23:57;;;;;;;;;;;;;;;1.84;100.00;100049.44;5092815;28;19930;-60
2023/01/20 09:26:23;;;;;;;;;;;;;;;3.36;100.00;100044.34;5090421;28;19916;-62
2023/01/20 09:28:48;;;;;;;;;;;;;;;4.20;100.00;100043.78;5085934;28;19945;-62
2023/01/20 09:31:13;;;;;;;;;;;;;;;3.62;100.00;100043.69;5094173;28;20350;-62
2023/01/20 09:33:40;;;;;;;;;;;;;;;3.01;100.00;100053.69;5092058;28;19959;-62
2023/01/20 09:36:06;;;;;;;;;;;;;;;3.38;100.00;100052.78;5084281;28;20020;-62
2023/01/20 09:44:04;;;;;;;;;;;;;;;5.49;98.67;100049.91;5094839;28;19923;-62
2023/01/20 09:46:35;;;;;;;;;;;;;;;5.44;100.00;100042.41;5091148;28;19920;-61
2023/01/20 09:55:15;;;;;;;;;;;;;;;5.22;100.00;100054.25;5095415;28;20432;-61
2023/01/20 09:57:42;;;;;;;;;;;;;;;5.46;100.00;100060.25;5094797;28;20309;-61
2023/01/20 10:00:15;;;;;;;;;;;;;;;5.29;100.00;100061.63;5078547;28;20019;-63
2023/01/20 10:02:43;;;;;;;;;;;;;;;5.80;100.00;100066.72;5092013;28;19920;-61
2023/01/20 10:05:17;;;;;;;;;;;;;;;5.22;100.00;100072.09;5091130;28;20353;-62
2023/01/20 10:07:54;;;;;;;;;;;;;;;5.64;100.00;100066.41;5091556;28;19935;-63
2023/01/20 10:10:23;;;;;;;;;;;;;;;5.61;99.83;100069.91;5102006;28;19916;-62
2023/01/20 10:12:52;;;;;;;;;;;;;;;6.15;99.92;100067.19;5105451;28;19920;-63
2023/01/20 10:15:21;;;;;;;;;;;;;;;6.54;96.43;100064.06;5097898;28;19924;-62
2023/01/20 10:17:54;;;;;;;;;;;;;;;5.91;94.94;100068.91;5106543;28;19947;-61
2023/01/20 10:20:25;;;;;;;;;;;;;;;5.32;100.00;100070.88;5078601;28;19927;-61
2023/01/20 10:22:53;;;;;;;;;;;;;;;4.04;100.00;100070.53;5109594;27;20002;-62
2023/01/20 10:25:21;;;;;;;;;;;;;;;4.55;100.00;100070.78;5091424;28;20295;-61
2023/01/20 10:27:59;;;;;;;;;;;;;;;4.43;100.00;100065.16;5106328;28;19931;-63
2023/01/20 10:30:30;;;;;;;;;;;;;;;2.72;100.00;100060.28;5083110;28;19927;-62
2023/01/20 10:33:07;;;;;;;;;;;;;;;2.44;100.00;100063.44;5094239;28;19932;-61
2023/01/20 10:35:36;;;;;;;;;;;;;;;2.31;100.00;100070.47;5105641;28;20054;-60
2023/01/20 10:38:05;;;;;;;;;;;;;;;1.93;100.00;100069.53;5106223;28;20005;-64
2023/01/20 10:40:42;;;;;;;;;;;;;;;1.75;100.00;100069.03;5099706;28;19927;-60
2023/01/20 10:43:12;;;;;;;;;;;;;;;1.60;100.00;100062.53;5101510;28;20363;-61
2023/01/20 10:45:46;;;;;;;;;;;;;;;1.34;100.00;100062.16;5092610;28;19916;-60
2023/01/20 10:48:23;;;;;;;;;;;;;;;1.28;100.00;100061.41;5093580;28;19916;-61
2023/01/20 10:50:52;;;;;;;;;;;;;;;1.19;100.00;100063.25;5084322;28;20472;-61
2023/01/20 10:53:34;;;;;;;;;;;;;;;1.45;100.00;100062.81;5092441;28;19920;-63
2023/01/20 10:56:11;;;;;;;;;;;;;;;1.53;100.00;100062.69;5093002;28;19928;-61
2023/01/20 10:58:37;;;;;;;;;;;;;;;1.35;100.00;100067.19;5092392;28;19916;-61
2023/01/20 11:01:04;;;;;;;;;;;;;;;1.46;100.00;100061.94;5090940;28;20008;-62
2023/01/20 11:03:38;;;;;;;;;;;;;;;1.53;100.00;100071.13;5099580;28;21059;-61
2023/01/20 11:06:05;;;;;;;;;;;;;;;1.81;100.00;100067.25;5091465;28;20037;-61
2023/01/20 11:08:30;;;;;;;;;;;;;;;1.96;100.00;100066.97;5098066;28;20010;-61
2023/01/20 11:10:57;;;;;;;;;;;;;;;2.02;100.00;100071.06;5088863;28;20011;-61
2023/01/20 11:13:22;;;;;;;;;;;;;;;2.02;100.00;100074.44;5095101;28;19916;-61
2023/01/20 11:15:57;;;;;;;;;;;;;;;2.08;100.00;100069.25;5093478;28;20041;-64
2023/01/20 11:18:26;;;;;;;;;;;;;;;2.29;100.00;100061.22;5093578;28;19920;-60
2023/01/20 11:20:56;;;;;;;;;;;;;;;2.36;100.00;100065.31;5091278;28;20038;-62
2023/01/20 11:23:23;;;;;;;;;;;;;;;2.54;100.00;100067.47;5087331;27;19942;-61
2023/01/20 11:25:56;;;;;;;;;;;;;;;2.60;100.00;100070.72;5093194;28;20038;-65
2023/01/20 11:28:22;;;;;;;;;;;;;;;2.74;100.00;100061.94;5091680;28;19924;-60
2023/01/20 11:30:51;;;;;;;;;;;;;;;2.72;100.00;100065.38;5082655;28;20410;-61
2023/01/20 11:33:24;;;;;;;;;;;;;;;2.81;100.00;100070.22;5102820;28;19916;-61
2023/01/20 11:35:57;;;;;;;;;;;;;;;2.85;100.00;100064.22;5091240;28;19916;-63
2023/01/20 11:38:24;;;;;;;;;;;;;;;2.33;100.00;100068.75;5089760;28;20402;-62
2023/01/20 11:40:53;;;;;;;;;;;;;;;2.45;100.00;100072.72;5086861;28;20004;-63
2023/01/20 11:43:27;;;;;;;;;;;;;;;2.36;100.00;100070.38;5088914;28;20399;-62
2023/01/20 11:46:08;;;;;;;;;;;;;;;2.32;100.00;100076.38;5089883;28;19920;-62
2023/01/20 11:48:33;;;;;;;;;;;;;;;2.71;100.00;100068.78;5107834;28;20419;-63
2023/01/20 11:51:02;;;;;;;;;;;;;;;2.71;100.00;100068.78;5089588;27;19941;-63
2023/01/20 11:53:30;;;;;;;;;;;;;;;2.49;100.00;100074.31;5091722;28;20363;-62
2023/01/20 11:55:59;;;;;;;;;;;;;;;2.88;100.00;100069.22;5092656;28;19916;-61
2023/01/20 11:58:30;;;;;;;;;;;;;;;3.19;100.00;100071.03;5090895;28;20010;-63
2023/01/20 12:00:59;;;;;;;;;;;;;;;3.50;100.00;100067.72;5068968;28;20405;-63
2023/01/20 12:03:51;;;;;;;;;;;;;;;3.32;100.00;100071.56;5080445;28;19927;-61
2023/01/20 12:06:23;;;;;;;;;;;;;;;3.20;100.00;100059.16;5084510;28;19920;-61
2023/01/20 12:08:50;;;;;;;;;;;;;;;2.81;100.00;100061.78;5090463;28;20331;-62
2023/01/20 12:11:17;;;;;;;;;;;;;;;2.95;100.00;100064.00;5089011;28;19949;-61
2023/01/20 12:16:39;;;;;;;;;;;;;;;3.23;100.00;100065.00;5094998;28;19940;-63
2023/01/20 12:19:13;;;;;;;;;;;;;;;3.23;100.00;100062.44;5088720;28;19999;-60
2023/01/20 12:21:41;;;;;;;;;;;;;;;3.24;100.00;100065.84;5089116;28;20038;-62
2023/01/20 12:24:11;;;;;;;;;;;;;;;3.28;100.00;100064.88;5087092;28;20053;-63
2023/01/20 12:26:36;;;;;;;;;;;;;;;3.19;100.00;100068.50;5089327;28;20001;-63
2023/01/20 12:29:24;;;;;;;;;;;;;;;3.07;100.00;100067.06;5082022;28;19951;-62
2023/01/20 12:31:49;;;;;;;;;;;;;;;3.02;100.00;100073.16;5081278;28;19939;-68
2023/01/20 12:34:19;;;;;;;;;;;;;;;2.69;100.00;100081.53;5082414;28;19921;-63
2023/01/20 12:36:56;;;;;;;;;;;;;;;2.65;100.00;100081.63;5086716;28;20393;-65
2023/01/20 12:39:21;;;;;;;;;;;;;;;2.68;100.00;100081.53;5087827;28;19924;-61
2023/01/20 12:41:47;;;;;;;;;;;;;;;2.30;100.00;100078.97;5098163;28;19970;-62
2023/01/20 12:44:30;;;;;;;;;;;;;;;2.26;100.00;100085.78;5091225;28;23093;-65
2023/01/20 12:46:55;;;;;;;;;;;;;;;2.52;100.00;100086.13;5087974;28;20363;-67
2023/01/20 12:49:23;;;;;;;;;;;;;;;2.58;100.00;100091.09;5090272;28;19924;-66
2023/01/20 12:52:02;;;;;;;;;;;;;;;2.62;100.00;100086.75;5080939;28;19928;-73